createdAt,value
2023-01-21T00:01:48.182Z,0.62
2023-01-21T00:04:15.979Z,0.62
2023-01-21T00:06:43.665Z,0.57
2023-01-21T00:09:11.532Z,0.54
2023-01-21T00:11:39.205Z,0.52
2023-01-21T00:14:08.302Z,0.54
2023-01-21T00:16:35.972Z,0.43
2023-01-21T00:19:03.652Z,0.45
2023-01-21T00:21:31.309Z,0.37
2023-01-21T00:23:58.949Z,0.39
2023-01-21T00:26:26.623Z,0.41
2023-01-21T00:28:54.251Z,0.40
2023-01-21T00:31:23.458Z,0.38
2023-01-21T00:33:51.303Z,0.36
2023-01-21T00:36:20.992Z,0.29
2023-01-21T00:38:50.128Z,0.28
2023-01-21T00:41:18.459Z,0.30
2023-01-21T00:43:46.109Z,0.32
2023-01-21T00:46:13.839Z,0.34
2023-01-21T00:48:42.982Z,0.18
2023-01-21T00:51:10.863Z,0.17
2023-01-21T00:53:41.983Z,0.12
2023-01-21T00:56:11.650Z,0.11
2023-01-21T00:58:39.710Z,0.10
2023-01-21T01:01:09.391Z,0.09
2023-01-21T01:03:38.228Z,0.12
2023-01-21T01:06:09.675Z,0.13
2023-01-21T01:08:37.659Z,0.10
2023-01-21T01:11:06.077Z,0.11
2023-01-21T01:13:34.949Z,0.02
2023-01-21T01:16:03.015Z,-0.06
2023-01-21T01:18:33.594Z,-0.09
2023-01-21T01:21:02.037Z,0.02
2023-01-21T01:23:31.833Z,0.04
2023-01-21T01:26:01.717Z,0.09
2023-01-21T01:28:30.693Z,0.01
2023-01-21T01:30:59.155Z,-0.07
2023-01-21T01:33:28.186Z,0.02
2023-01-21T01:35:55.933Z,0.01
2023-01-21T01:38:24.303Z,0.03
2023-01-21T01:40:53.657Z,0.05
2023-01-21T01:43:24.951Z,0.02
2023-01-21T01:45:53.713Z,0.05
2023-01-21T01:48:26.817Z,0.02
2023-01-21T01:50:56.473Z,0.01
2023-01-21T01:53:25.382Z,-0.05
2023-01-21T01:55:54.887Z,-0.04
2023-01-21T01:58:23.889Z,0.03
2023-01-21T02:00:51.618Z,0.01
2023-01-21T02:03:37.301Z,-0.12
2023-01-21T02:06:05.465Z,-0.12
2023-01-21T02:08:36.187Z,-0.06
2023-01-21T02:11:11.526Z,-0.04
2023-01-21T02:13:39.518Z,-0.01
2023-01-21T02:16:32.070Z,0.02
2023-01-21T02:19:15.801Z,0.04
2023-01-21T02:21:55.209Z,0.00
2023-01-21T02:24:52.426Z,-0.04
2023-01-21T02:27:43.005Z,-0.04
2023-01-21T02:30:42.341Z,-0.01
2023-01-21T02:33:29.919Z,-0.01
2023-01-21T02:36:10.729Z,-0.02
2023-01-21T02:38:46.692Z,-0.05
2023-01-21T02:41:24.723Z,-0.08
2023-01-21T02:43:59.387Z,-0.08
2023-01-21T02:46:32.427Z,-0.04
2023-01-21T02:49:06.729Z,-0.08
2023-01-21T02:51:35.802Z,-0.14
2023-01-21T02:54:14.548Z,-0.13
2023-01-21T02:56:44.416Z,-0.12
2023-01-21T02:59:12.916Z,-0.10
2023-01-21T03:01:52.025Z,-0.09
2023-01-21T03:04:44.374Z,-0.12
2023-01-21T03:07:21.100Z,-0.08
2023-01-21T03:09:49.499Z,-0.08
2023-01-21T03:12:31.557Z,-0.07
2023-01-21T03:15:22.481Z,-0.10
2023-01-21T03:17:55.582Z,-0.17
2023-01-21T03:20:27.370Z,-0.19
2023-01-21T03:23:01.010Z,-0.20
2023-01-21T03:25:32.477Z,-0.23
2023-01-21T03:28:03.619Z,-0.22
2023-01-21T03:30:35.113Z,-0.23
2023-01-21T03:33:04.036Z,-0.24
2023-01-21T03:35:36.734Z,-0.25
2023-01-21T03:38:13.076Z,-0.25
2023-01-21T03:40:45.675Z,-0.26
2023-01-21T03:43:13.393Z,-0.25
2023-01-21T03:45:47.485Z,-0.30
2023-01-21T03:48:20.945Z,-0.29
2023-01-21T03:50:56.297Z,-0.30
2023-01-21T03:53:24.332Z,-0.31
2023-01-21T03:55:52.719Z,-0.33
2023-01-21T03:58:20.442Z,-0.40
2023-01-21T04:00:49.218Z,-0.41
2023-01-21T04:03:16.943Z,-0.45
2023-01-21T04:05:44.697Z,-0.46
2023-01-21T04:08:13.859Z,-0.42
2023-01-21T04:10:41.533Z,-0.45
2023-01-21T04:13:09.166Z,-0.43
2023-01-21T04:15:36.837Z,-0.52
2023-01-21T04:18:04.658Z,-0.50
2023-01-21T04:20:32.287Z,-0.49
2023-01-21T04:22:59.961Z,-0.48
2023-01-21T04:25:28.979Z,-0.48
2023-01-21T04:27:56.632Z,-0.46
2023-01-21T04:30:24.279Z,-0.42
2023-01-21T04:32:51.948Z,-0.45
2023-01-21T04:35:19.592Z,-0.45
2023-01-21T04:37:47.269Z,-0.46
2023-01-21T04:40:15.397Z,-0.49
2023-01-21T04:42:44.838Z,-0.49
2023-01-21T04:45:12.856Z,-0.50
2023-01-21T04:47:42.330Z,-0.55
2023-01-21T04:50:11.968Z,-0.54
2023-01-21T04:52:39.967Z,-0.53
2023-01-21T04:55:09.014Z,-0.54
2023-01-21T04:57:36.762Z,-0.54
2023-01-21T05:00:08.122Z,-0.56
2023-01-21T05:02:35.919Z,-0.58
2023-01-21T05:05:03.800Z,-0.62
2023-01-21T05:07:31.515Z,-0.60
2023-01-21T05:09:59.187Z,-0.58
2023-01-21T05:12:27.429Z,-0.58
2023-01-21T05:14:57.483Z,-0.61
2023-01-21T05:17:26.881Z,-0.70
2023-01-21T05:19:54.506Z,-0.70
2023-01-21T05:22:22.131Z,-0.69
2023-01-21T05:24:49.792Z,-0.70
2023-01-21T05:27:17.571Z,-0.67
2023-01-21T05:29:45.221Z,-0.66
2023-01-21T05:32:12.847Z,-0.67
2023-01-21T05:34:41.884Z,-0.68
2023-01-21T05:37:09.776Z,-0.68
2023-01-21T05:39:37.397Z,-0.73
2023-01-21T05:42:05.134Z,-0.71
2023-01-21T05:44:32.864Z,-0.67
2023-01-21T05:47:00.503Z,-0.67
2023-01-21T05:49:28.144Z,-0.68
2023-01-21T05:51:57.177Z,-0.70
2023-01-21T05:54:24.788Z,-0.71
2023-01-21T05:56:52.497Z,-0.70
2023-01-21T05:59:20.103Z,-0.73
2023-01-21T06:01:47.884Z,-0.75
2023-01-21T06:04:15.506Z,-0.80
2023-01-21T06:06:43.154Z,-0.80
2023-01-21T06:09:12.146Z,-0.84
2023-01-21T06:11:39.763Z,-0.84
2023-01-21T06:14:07.371Z,-0.87
2023-01-21T06:16:35.003Z,-0.84
2023-01-21T06:19:02.728Z,-0.82
2023-01-21T06:21:30.359Z,-0.83
2023-01-21T06:23:58.396Z,-0.84
2023-01-21T06:26:27.401Z,-0.88
2023-01-21T06:28:56.901Z,-0.90
2023-01-21T06:31:24.821Z,-0.95
2023-01-21T06:33:52.534Z,-0.91
2023-01-21T06:36:20.207Z,-0.94
2023-01-21T06:38:47.828Z,-0.92
2023-01-21T06:41:15.534Z,-0.89
2023-01-21T06:43:44.505Z,-0.94
2023-01-21T06:46:12.248Z,-0.95
2023-01-21T06:48:40.015Z,-0.97
2023-01-21T06:51:07.749Z,-0.93
2023-01-21T06:53:35.428Z,-0.93
2023-01-21T06:56:03.045Z,-0.96
2023-01-21T06:58:30.719Z,-0.97
2023-01-21T07:00:59.715Z,-1.01
2023-01-21T07:03:27.433Z,-1.05
2023-01-21T07:05:55.075Z,-1.02
2023-01-21T07:08:22.774Z,-1.01
2023-01-21T07:10:50.447Z,-0.98
2023-01-21T07:13:18.102Z,-1.01
2023-01-21T07:15:45.904Z,-1.10
2023-01-21T07:18:14.945Z,-1.08
2023-01-21T07:20:42.668Z,-1.05
2023-01-21T07:23:10.310Z,-1.02
2023-01-21T07:25:38.245Z,-1.04
2023-01-21T07:28:06.098Z,-1.15
2023-01-21T07:30:33.803Z,-1.15
2023-01-21T07:33:06.614Z,-1.13
2023-01-21T07:35:35.746Z,-1.11
2023-01-21T07:38:03.558Z,-1.16
2023-01-21T07:40:31.463Z,-1.13
2023-01-21T07:42:59.164Z,-1.16
2023-01-21T07:45:26.945Z,-1.16
2023-01-21T07:47:54.613Z,-1.17
2023-01-21T07:50:22.283Z,-1.17
2023-01-21T07:52:51.355Z,-1.19
2023-01-21T07:55:19.308Z,-1.14
2023-01-21T07:57:47.309Z,-1.12
2023-01-21T08:00:16.486Z,-1.14
2023-01-21T08:02:44.394Z,-1.16
2023-01-21T08:05:12.163Z,-1.16
2023-01-21T08:07:39.805Z,-1.19
2023-01-21T08:10:09.947Z,-1.14
2023-01-21T08:12:37.598Z,-1.11
2023-01-21T08:15:06.287Z,-1.04
2023-01-21T08:17:34.306Z,-0.87
2023-01-21T08:20:01.968Z,-0.79
2023-01-21T08:22:29.608Z,-0.84
2023-01-21T08:24:57.279Z,-0.75
2023-01-21T08:27:26.357Z,-0.78
2023-01-21T08:29:54.042Z,-0.76
2023-01-21T08:32:21.719Z,-0.66
2023-01-21T08:34:49.500Z,-0.55
2023-01-21T08:37:17.149Z,-0.48
2023-01-21T08:39:44.783Z,-0.40
2023-01-21T08:42:12.421Z,-0.30
2023-01-21T08:44:41.501Z,-0.24
2023-01-21T08:47:09.188Z,-0.24
2023-01-21T08:49:36.826Z,-0.19
2023-01-21T08:52:05.002Z,-0.16
2023-01-21T08:54:32.645Z,-0.18
2023-01-21T08:57:00.395Z,-0.21
2023-01-21T08:59:28.694Z,-0.16
2023-01-21T09:01:57.967Z,-0.07
2023-01-21T09:04:25.690Z,0.04
2023-01-21T09:06:53.397Z,0.03
2023-01-21T09:09:21.056Z,-0.01
2023-01-21T09:11:48.770Z,0.01
2023-01-21T09:14:16.452Z,0.06
2023-01-21T09:16:44.148Z,0.06
2023-01-21T09:19:13.252Z,0.10
2023-01-21T09:21:40.958Z,0.19
2023-01-21T09:24:09.669Z,0.24
2023-01-21T09:26:37.377Z,0.24
2023-01-21T09:29:05.194Z,0.34
2023-01-21T09:31:32.963Z,0.40
2023-01-21T09:34:03.674Z,0.43
2023-01-21T09:36:34.242Z,0.49
2023-01-21T09:39:02.324Z,0.51
2023-01-21T09:41:34.577Z,0.47
2023-01-21T09:44:07.505Z,0.40
2023-01-21T09:46:41.161Z,0.49
2023-01-21T09:49:17.541Z,0.54
2023-01-21T09:51:54.620Z,0.64
2023-01-21T09:54:27.754Z,0.66
2023-01-21T09:57:07.926Z,0.68
2023-01-21T09:59:47.773Z,0.65
2023-01-21T10:02:26.085Z,0.63
2023-01-21T10:05:12.542Z,0.69
2023-01-21T10:07:50.263Z,0.82
2023-01-21T10:10:25.549Z,0.92
2023-01-21T10:13:11.851Z,0.98
2023-01-21T10:15:49.901Z,1.06
2023-01-21T10:18:24.035Z,1.06
2023-01-21T10:20:55.609Z,1.07
2023-01-21T10:23:28.731Z,1.13
2023-01-21T10:26:00.037Z,1.20
2023-01-21T10:28:31.459Z,1.24
2023-01-21T10:31:05.665Z,1.32
2023-01-21T10:33:34.653Z,1.32
2023-01-21T10:36:27.574Z,1.39
2023-01-21T10:39:02.517Z,1.50
2023-01-21T10:41:53.432Z,1.52
2023-01-21T10:44:29.440Z,1.47
2023-01-21T10:47:06.735Z,1.42
2023-01-21T10:49:47.361Z,1.43
2023-01-21T10:52:20.825Z,1.50
2023-01-21T10:54:56.519Z,1.51
2023-01-21T10:57:40.490Z,1.48
2023-01-21T11:00:19.549Z,1.52
2023-01-21T11:02:52.134Z,1.64
2023-01-21T11:05:20.729Z,1.68
2023-01-21T11:07:50.081Z,1.75
2023-01-21T11:10:23.155Z,1.72
2023-01-21T11:12:51.239Z,1.75
2023-01-21T11:15:20.826Z,1.78
2023-01-21T11:17:53.026Z,1.84
2023-01-21T11:20:26.187Z,1.63
2023-01-21T11:22:53.872Z,1.59
2023-01-21T11:25:29.438Z,1.65
2023-01-21T11:27:57.118Z,1.77
2023-01-21T11:30:49.616Z,1.92
2023-01-21T11:33:25.524Z,1.96
2023-01-21T11:35:54.500Z,2.06
2023-01-21T11:38:33.274Z,2.19
2023-01-21T11:41:05.146Z,2.17
2023-01-21T11:43:35.481Z,2.18
2023-01-21T11:46:22.871Z,2.23
2023-01-21T11:48:50.776Z,2.28
2023-01-21T11:51:18.849Z,2.37
2023-01-21T11:53:47.192Z,2.30
2023-01-21T11:56:17.183Z,2.39
2023-01-21T11:58:44.964Z,2.25
2023-01-21T12:01:22.902Z,2.38
2023-01-21T12:03:54.826Z,2.35
2023-01-21T12:06:26.480Z,2.33
2023-01-21T12:08:57.372Z,2.47
2023-01-21T12:11:28.742Z,2.63
2023-01-21T12:14:04.729Z,2.72
2023-01-21T12:16:35.283Z,2.74
2023-01-21T12:19:31.383Z,2.77
2023-01-21T12:22:15.568Z,2.69
2023-01-21T12:25:04.778Z,2.65
2023-01-21T12:27:43.773Z,2.68
2023-01-21T12:30:25.678Z,2.67
2023-01-21T12:32:58.430Z,2.67
2023-01-21T12:35:31.310Z,2.71
2023-01-21T12:38:04.855Z,2.74
2023-01-21T12:40:39.145Z,2.80
2023-01-21T12:43:15.975Z,2.81
2023-01-21T12:45:50.057Z,2.88
2023-01-21T12:48:23.291Z,2.93
2023-01-21T12:50:55.634Z,2.90
2023-01-21T12:53:31.650Z,2.83
2023-01-21T12:56:10.441Z,2.91
2023-01-21T12:58:44.795Z,2.93
2023-01-21T13:01:17.110Z,3.02
2023-01-21T13:03:56.198Z,3.04
2023-01-21T13:06:47.181Z,3.19
2023-01-21T13:09:23.775Z,3.16
2023-01-21T13:11:57.143Z,3.13
2023-01-21T13:14:31.063Z,3.22
2023-01-21T13:17:02.894Z,3.24
2023-01-21T13:19:30.655Z,3.30
2023-01-21T13:22:05.621Z,3.25
2023-01-21T13:24:34.885Z,3.25
2023-01-21T13:27:14.566Z,3.22
2023-01-21T13:29:54.375Z,3.13
2023-01-21T13:32:32.200Z,3.14
2023-01-21T13:35:18.449Z,2.98
2023-01-21T13:37:55.916Z,3.05
2023-01-21T13:40:33.775Z,3.13
2023-01-21T13:43:11.412Z,3.18
2023-01-21T13:45:57.201Z,3.25
2023-01-21T13:48:38.934Z,3.29
2023-01-21T13:51:27.509Z,3.17
2023-01-21T13:54:12.525Z,3.22
2023-01-21T13:56:59.683Z,3.29
2023-01-21T13:59:34.288Z,3.38
2023-01-21T14:02:09.495Z,3.40
2023-01-21T14:04:44.163Z,3.41
2023-01-21T14:07:17.173Z,3.46
2023-01-21T14:09:51.678Z,3.41
2023-01-21T14:12:22.959Z,3.34
2023-01-21T14:15:11.155Z,3.32
2023-01-21T14:18:08.600Z,3.40
2023-01-21T14:20:54.541Z,3.46
2023-01-21T14:24:00.220Z,3.29
2023-01-21T14:26:53.567Z,3.42
2023-01-21T14:29:30.960Z,3.42
2023-01-21T14:32:06.300Z,3.40
2023-01-21T14:34:44.321Z,3.40
2023-01-21T14:37:17.831Z,3.43
2023-01-21T14:39:55.387Z,3.45
2023-01-21T14:42:41.527Z,3.54
2023-01-21T14:45:09.894Z,3.44
2023-01-21T14:47:49.098Z,3.54
2023-01-21T14:50:53.203Z,3.52
2023-01-21T14:53:25.635Z,3.50
2023-01-21T14:56:08.637Z,3.53
2023-01-21T14:58:37.555Z,3.49
2023-01-21T15:01:07.831Z,3.53
2023-01-21T15:03:49.392Z,3.43
2023-01-21T15:06:22.325Z,3.44
2023-01-21T15:08:53.490Z,3.47
2023-01-21T15:11:24.200Z,3.50
2023-01-21T15:14:03.388Z,3.56
2023-01-21T15:16:35.973Z,3.49
2023-01-21T15:19:26.358Z,3.44
2023-01-21T15:22:40.760Z,3.37
2023-01-21T15:25:34.315Z,3.41
2023-01-21T15:28:43.699Z,3.34
2023-01-21T15:31:14.749Z,3.29
2023-01-21T15:33:51.024Z,3.29
2023-01-21T15:36:25.810Z,3.32
2023-01-21T15:38:55.936Z,3.27
2023-01-21T15:41:30.158Z,3.26
2023-01-21T15:44:11.908Z,3.23
2023-01-21T15:46:45.260Z,3.12
2023-01-21T15:49:29.073Z,3.16
2023-01-21T15:52:05.888Z,3.18
2023-01-21T15:54:40.491Z,3.19
2023-01-21T15:57:24.483Z,3.19
2023-01-21T16:00:05.308Z,3.19
2023-01-21T16:02:39.530Z,3.19
2023-01-21T16:05:23.501Z,3.18
2023-01-21T16:08:02.146Z,3.16
2023-01-21T16:10:40.796Z,2.97
2023-01-21T16:13:18.289Z,2.93
2023-01-21T16:15:56.841Z,2.93
2023-01-21T16:18:33.295Z,2.94
2023-01-21T16:21:04.687Z,2.88
2023-01-21T16:23:38.829Z,2.96
2023-01-21T16:26:06.493Z,2.98
2023-01-21T16:28:49.944Z,2.94
2023-01-21T16:31:18.038Z,2.97
2023-01-21T16:33:45.853Z,2.96
2023-01-21T16:36:15.083Z,2.97
2023-01-21T16:38:44.772Z,3.00
2023-01-21T16:41:23.943Z,3.03
2023-01-21T16:43:55.157Z,3.05
2023-01-21T16:46:26.872Z,3.07
2023-01-21T16:48:58.289Z,3.09
2023-01-21T16:51:30.756Z,3.17
2023-01-21T16:54:23.285Z,3.16
2023-01-21T16:56:52.601Z,3.12
2023-01-21T16:59:23.380Z,3.06
2023-01-21T17:01:51.703Z,3.06
2023-01-21T17:04:19.528Z,3.01
2023-01-21T17:06:48.158Z,2.99
2023-01-21T17:09:27.746Z,2.92
2023-01-21T17:11:56.979Z,2.94
2023-01-21T17:14:29.909Z,2.88
2023-01-21T17:17:01.627Z,2.81
2023-01-21T17:19:32.805Z,2.73
2023-01-21T17:22:02.486Z,2.69
2023-01-21T17:24:33.925Z,2.64
2023-01-21T17:27:05.300Z,2.67
2023-01-21T17:29:35.403Z,2.60
2023-01-21T17:32:04.871Z,2.62
2023-01-21T17:34:34.732Z,2.61
2023-01-21T17:37:05.361Z,2.47
2023-01-21T17:40:00.729Z,2.46
2023-01-21T17:42:39.464Z,2.46
2023-01-21T17:45:19.954Z,2.52
2023-01-21T17:48:12.527Z,2.52
2023-01-21T17:50:45.199Z,2.53
2023-01-21T17:53:20.750Z,2.50
2023-01-21T17:55:58.145Z,2.51
2023-01-21T17:58:46.716Z,2.50
2023-01-21T18:01:16.436Z,2.41
2023-01-21T18:03:44.340Z,2.42
2023-01-21T18:06:18.504Z,2.39
2023-01-21T18:08:46.150Z,2.37
2023-01-21T18:11:16.458Z,2.31
2023-01-21T18:13:44.210Z,2.36
2023-01-21T18:16:12.020Z,2.14
2023-01-21T18:18:41.934Z,2.18
2023-01-21T18:21:18.773Z,2.23
2023-01-21T18:23:46.477Z,2.15
2023-01-21T18:26:21.173Z,2.03
2023-01-21T18:28:48.915Z,2.01
2023-01-21T18:31:16.662Z,2.02
2023-01-21T18:33:45.777Z,2.02
2023-01-21T18:36:13.588Z,2.14
2023-01-21T18:38:41.324Z,2.09
2023-01-21T18:41:11.120Z,2.10
2023-01-21T18:43:38.850Z,2.04
2023-01-21T18:46:12.118Z,2.13
2023-01-21T18:48:40.541Z,2.16
2023-01-21T18:51:10.414Z,2.18
2023-01-21T18:53:38.133Z,2.18
2023-01-21T18:56:06.822Z,2.23
2023-01-21T18:58:34.477Z,2.14
2023-01-21T19:01:10.858Z,2.21
2023-01-21T19:03:45.515Z,2.15
2023-01-21T19:06:16.795Z,2.17
2023-01-21T19:08:48.449Z,2.04
2023-01-21T19:11:18.112Z,2.05
2023-01-21T19:13:45.818Z,2.08
2023-01-21T19:16:16.724Z,2.12
2023-01-21T19:18:44.520Z,2.15
2023-01-21T19:21:12.617Z,2.10
2023-01-21T19:23:41.613Z,2.07
2023-01-21T19:26:13.652Z,2.03
2023-01-21T19:28:41.437Z,2.05
2023-01-21T19:31:09.245Z,1.98
2023-01-21T19:33:37.156Z,2.00
2023-01-21T19:36:12.437Z,2.02
2023-01-21T19:38:43.911Z,2.02
2023-01-21T19:41:11.818Z,1.99
2023-01-21T19:43:39.467Z,1.94
2023-01-21T19:46:11.544Z,1.89
2023-01-21T19:48:39.947Z,1.93
2023-01-21T19:51:07.979Z,1.96
2023-01-21T19:53:35.683Z,1.96
2023-01-21T19:56:05.951Z,1.92
2023-01-21T19:58:34.056Z,1.97
2023-01-21T20:01:01.791Z,1.99
2023-01-21T20:03:30.599Z,1.87
2023-01-21T20:06:03.017Z,1.87
2023-01-21T20:08:32.316Z,1.86
2023-01-21T20:10:59.981Z,1.89
2023-01-21T20:13:32.161Z,1.82
2023-01-21T20:16:03.635Z,1.81
2023-01-21T20:18:33.284Z,1.79
2023-01-21T20:21:00.997Z,1.89
2023-01-21T20:23:29.067Z,1.86
2023-01-21T20:25:59.548Z,1.89
2023-01-21T20:28:35.978Z,1.94
2023-01-21T20:31:06.524Z,1.97
2023-01-21T20:33:35.161Z,1.98
2023-01-21T20:36:04.544Z,1.89
2023-01-21T20:38:33.971Z,1.89
2023-01-21T20:41:02.341Z,1.92
2023-01-21T20:43:31.622Z,1.86
2023-01-21T20:46:02.569Z,1.86
2023-01-21T20:48:33.813Z,1.85
2023-01-21T20:51:02.066Z,1.80
2023-01-21T20:53:30.754Z,1.80
2023-01-21T20:56:01.020Z,1.76
2023-01-21T20:58:31.339Z,1.71
2023-01-21T21:01:00.745Z,1.69
2023-01-21T21:03:28.379Z,1.67
2023-01-21T21:05:56.052Z,1.71
2023-01-21T21:08:24.071Z,1.71
2023-01-21T21:10:52.821Z,1.63
2023-01-21T21:13:20.583Z,1.65
2023-01-21T21:15:50.607Z,1.65
2023-01-21T21:18:19.673Z,1.50
2023-01-21T21:20:47.350Z,1.58
2023-01-21T21:23:15.957Z,1.56
2023-01-21T21:25:45.752Z,1.57
2023-01-21T21:28:14.898Z,1.57
2023-01-21T21:30:43.216Z,1.59
2023-01-21T21:33:16.493Z,1.66
2023-01-21T21:35:46.867Z,1.63
2023-01-21T21:38:17.451Z,1.70
2023-01-21T21:40:46.946Z,1.63
2023-01-21T21:43:38.832Z,1.62
2023-01-21T21:46:24.792Z,1.62
2023-01-21T21:48:53.088Z,1.53
2023-01-21T21:51:22.771Z,1.48
2023-01-21T21:53:51.116Z,1.37
2023-01-21T21:56:20.279Z,1.43
2023-01-21T21:58:48.918Z,1.39
2023-01-21T22:01:18.719Z,1.40
2023-01-21T22:03:46.880Z,1.38
2023-01-21T22:06:15.791Z,1.35
2023-01-21T22:08:44.822Z,1.32
2023-01-21T22:11:16.055Z,1.36
2023-01-21T22:13:44.372Z,1.36
2023-01-21T22:16:13.259Z,1.27
2023-01-21T22:18:44.591Z,1.26
2023-01-21T22:21:15.476Z,1.26
2023-01-21T22:23:44.851Z,1.21
2023-01-21T22:26:14.471Z,1.19
2023-01-21T22:28:43.238Z,1.25
2023-01-21T22:31:12.939Z,1.30
2023-01-21T22:33:40.730Z,1.26
2023-01-21T22:36:11.023Z,1.23
2023-01-21T22:38:40.803Z,1.21
2023-01-21T22:41:11.644Z,1.20
2023-01-21T22:43:41.703Z,1.15
2023-01-21T22:46:11.990Z,1.14
2023-01-21T22:48:41.361Z,1.06
2023-01-21T22:51:12.499Z,1.05
2023-01-21T22:53:40.882Z,1.04
2023-01-21T22:56:12.856Z,0.96
2023-01-21T22:58:40.666Z,0.93
2023-01-21T23:01:09.334Z,0.94
2023-01-21T23:03:38.365Z,0.95
2023-01-21T23:06:08.046Z,0.92
2023-01-21T23:08:38.301Z,0.86
2023-01-21T23:11:08.382Z,0.91
2023-01-21T23:13:37.498Z,0.82
2023-01-21T23:16:07.782Z,0.78
2023-01-21T23:18:36.223Z,0.73
2023-01-21T23:21:06.970Z,0.76
2023-01-21T23:23:37.325Z,0.83
2023-01-21T23:26:06.108Z,0.83
2023-01-21T23:28:34.757Z,0.78
2023-01-21T23:31:07.267Z,0.72
2023-01-21T23:33:35.534Z,0.80
2023-01-21T23:36:03.694Z,0.84
2023-01-21T23:38:32.002Z,0.83
2023-01-21T23:40:59.936Z,0.91
2023-01-21T23:43:28.391Z,0.96
2023-01-21T23:45:56.575Z,1.00
2023-01-21T23:48:25.850Z,1.04
2023-01-21T23:50:53.541Z,1.06
2023-01-21T23:53:21.207Z,1.11
2023-01-21T23:55:48.903Z,1.13
2023-01-21T23:58:16.679Z,1.17
